Have a Safe July 4th! 

Flight Track Log - Related Links

Times and Time Zones

All times are in EST time to prevent confusion due to time zone crossing. See the UCA596 flight status page for this flight to view local times or setup timezone preferences in your user account.

Time Position Orientation Groundspeed Altitude Reporting Facility
EST Latitude Longitude Course Direction KTS MPH feet Rate Location/Type
Sun 01:08:52 PM 39.0000 -77.4333 360° North 164 189 2,300  Level Potomac TRACON
Sun 01:09:52 PM 39.0333 -77.4333 360° North 178 205 3,900 1,600 Climbing Potomac TRACON
Sun 01:10:52 PM 39.0833 -77.4333 360° North 174 200 5,500 1,565 Climbing Potomac TRACON
Sun 01:11:47 PM 39.1333 -77.4667 333° Northwest 169 194 6,900 1,438 Climbing Potomac TRACON
Sun 01:12:53 PM 39.1833 -77.4667 360° North 179 206 8,400 1,450 Climbing Potomac TRACON
Sun 01:13:47 PM 39.2333 -77.4833 346° North 183 211 9,800 1,474 Climbing Potomac TRACON
Sun 01:14:47 PM 39.2833 -77.5000 346° North 189 217 11,200 1,301 Climbing Potomac TRACON
Sun 01:16:33 PM 39.3672 -77.5056 357° North 196 226 13,400 1,222 Climbing Washington Center
Sun 01:17:34 PM 39.4300 -77.4939 North 206 237 14,600 1,236 Climbing Washington Center
Sun 01:19:18 PM 39.5392 -77.4747 North 221 254 16,800 1,207 Climbing New York Center
Sun 01:20:18 PM 39.5986 -77.4586 12° North 221 254 17,900 1,100 Climbing New York Center
Sun 01:21:18 PM 39.6658 -77.4517 North 221 254 19,000 550 Climbing New York Center
Sun 01:22:18 PM 39.7261 -77.4519 360° North 226 260 19,000  Level New York Center
Sun 01:23:18 PM 39.8056 -77.4514 360° North 248 285 19,000  Level New York Center
Sun 01:24:18 PM 39.8722 -77.4522 359° North 259 298 19,000  Level New York Center
Sun 01:25:18 PM 39.9581 -77.4469 North 277 319 19,000  Level New York Center
Sun 01:26:18 PM 40.0203 -77.4503 358° North 277 319 19,000  Level New York Center
Sun 01:27:18 PM 40.1122 -77.4456 North 272 313 19,000  Level New York Center
Sun 01:28:18 PM 40.1811 -77.4439 North 272 313 19,000  Level New York Center
Sun 01:29:18 PM 40.2667 -77.4439 360° North 272 313 19,000  Level New York Center
Sun 01:30:18 PM 40.3356 -77.4453 359° North 272 313 19,000  Level New York Center
Sun 01:31:18 PM 40.4189 -77.4450 360° North 272 313 19,000  Level New York Center
Sun 01:32:18 PM 40.4897 -77.4436 North 272 313 19,000  Level New York Center
Sun 01:33:18 PM 40.5733 -77.4408 North 272 313 19,000  Level New York Center
Sun 01:34:18 PM 40.6442 -77.4394 North 272 313 19,000  Level New York Center
Sun 01:35:18 PM 40.7236 -77.4392 360° North 278 320 19,000  Level New York Center
Sun 01:36:18 PM 40.7992 -77.3889 27° Northeast 283 326 19,000 -300 Level New York Center
Sun 01:37:18 PM 40.8806 -77.3117 36° Northeast 298 343 18,400 -867 Descending New York Center
Sun 01:39:18 PM 41.0361 -77.1753 33° Northeast 327 376 16,400 -1,000 Descending New York Center
Sun 01:40:18 PM 41.1128 -77.1053 35° Northeast 327 376 15,400 -1,000 Descending New York Center
Sun 01:41:18 PM 41.1872 -77.0378 34° Northeast 327 376 14,400 -1,050 Descending New York Center
Sun 01:42:18 PM 41.2617 -76.9703 34° Northeast 327 376 13,300 -700 Descending New York Center
Sun 01:43:18 PM 41.3361 -76.9025 34° Northeast 322 371 13,000 -150 Descending New York Center
Sun 01:44:18 PM 41.4081 -76.8369 34° Northeast 322 371 13,000  Level New York Center
Sun 01:45:18 PM 41.4650 -76.7814 36° Northeast 322 371 13,000  Level New York Center
Sun 01:46:18 PM 41.5436 -76.7106 34° Northeast 322 371 13,000  Level New York Center
Sun 01:47:18 PM 41.6136 -76.6447 35° Northeast 316 364 13,000 -500 Level New York Center
Sun 01:48:18 PM 41.6922 -76.5711 35° Northeast 316 364 12,000 -950 Descending New York Center
Sun 01:49:18 PM 41.7489 -76.5175 35° Northeast 311 358 11,100 -1,100 Descending New York Center
Sun 01:50:18 PM 41.8294 -76.4467 33° Northeast 311 358 9,800 -1,300 Descending New York Center
Sun 01:51:18 PM 41.8906 -76.3878 36° Northeast 295 339 8,500 -1,150 Descending New York Center
Sun 01:52:18 PM 41.9478 -76.3172 43° Northeast 282 325 7,500 -1,100 Descending New York Center
Sun 01:53:18 PM 42.0078 -76.2386 44° Northeast 276 318 6,300 -1,000 Descending New York Center
Sun 01:54:18 PM 42.0586 -76.1731 44° Northeast 270 311 5,500 -650 Descending New York Center
Sun 01:55:18 PM 42.1114 -76.1131 40° Northeast 258 297 5,000 -650 Descending New York Center
Sun 01:56:18 PM 42.1633 -76.0697 32° Northeast 237 273 4,200 -750 Descending New York Center
Sun 01:57:18 PM 42.2156 -76.0625 North 198 228 3,500 -600 Descending New York Center
Sun 01:58:18 PM 42.2600 -76.0494 12° North 179 206 3,000 -600 Descending New York Center
Sun 01:59:18 PM 42.2431 -76.0089 119° Southeast 84 97 2,300 -450 Descending New York Center
Sun 02:00:18 PM 42.2547 -75.9789 62° Northeast 78 90 2,100 5,350 Descending New York Center
Sun 02:01:18 PM 42.2600 -75.9514 75° East 78 90 13,000 10,900 Climbing New York Center
Sun 02:03:00 PM 42.2000 -75.9667 North  Level FlightAware Approximate
Sun 02:10:00 PM 42.2084 -75.9796 North  Level Estimated

Login

Don't have an account? Register now (free) for customized features, flight alerts, and more!